createdAt,value
2019-03-18T00:00:12.423Z,83.24
2019-03-18T00:02:40.738Z,83.36
2019-03-18T00:05:09.082Z,83.43
2019-03-18T00:07:37.374Z,83.56
2019-03-18T00:10:07.419Z,83.29
2019-03-18T00:12:35.700Z,83.41
2019-03-18T00:15:05.951Z,83.71
2019-03-18T00:17:34.515Z,83.78
2019-03-18T00:20:02.924Z,83.64
2019-03-18T00:22:31.233Z,83.69
2019-03-18T00:24:59.537Z,83.26
2019-03-18T00:27:28.140Z,83.35
2019-03-18T00:29:56.462Z,83.35
2019-03-18T00:32:25.218Z,83.54
2019-03-18T00:34:53.784Z,83.45
2019-03-18T00:37:22.110Z,83.38
2019-03-18T00:39:50.644Z,83.22
2019-03-18T00:42:18.949Z,83.56
2019-03-18T00:44:47.230Z,83.60
2019-03-18T00:47:15.538Z,83.76
2019-03-18T00:49:43.836Z,83.73
2019-03-18T00:52:12.136Z,83.83
2019-03-18T00:54:40.429Z,83.86
2019-03-18T00:57:08.753Z,83.23
2019-03-18T00:59:37.103Z,83.72
2019-03-18T01:02:05.410Z,83.84
2019-03-18T01:04:34.011Z,84.04
2019-03-18T01:07:02.309Z,84.05
2019-03-18T01:09:30.612Z,84.21
2019-03-18T01:11:58.972Z,84.23
2019-03-18T01:14:27.357Z,84.26
2019-03-18T01:16:55.650Z,84.40
2019-03-18T01:19:24.287Z,84.47
2019-03-18T01:21:52.941Z,84.68
2019-03-18T01:24:21.564Z,84.75
2019-03-18T01:26:50.140Z,84.71
2019-03-18T01:29:18.434Z,84.81
2019-03-18T01:31:46.732Z,84.84
2019-03-18T01:34:15.373Z,85.01
2019-03-18T01:36:43.671Z,85.28
2019-03-18T01:39:11.970Z,85.12
2019-03-18T01:41:40.744Z,85.27
2019-03-18T01:44:09.127Z,85.37
2019-03-18T01:46:37.444Z,85.43
2019-03-18T01:49:05.813Z,85.21
2019-03-18T01:51:34.367Z,85.00
2019-03-18T01:54:02.651Z,85.16
2019-03-18T01:56:31.051Z,85.11
2019-03-18T01:58:59.351Z,85.08
2019-03-18T02:01:27.712Z,85.25
2019-03-18T02:03:56.010Z,85.33
2019-03-18T02:06:24.326Z,85.42
2019-03-18T02:08:52.631Z,85.39
2019-03-18T02:11:20.913Z,85.46
2019-03-18T02:13:49.216Z,85.39
2019-03-18T02:16:17.511Z,85.36
2019-03-18T02:18:45.809Z,85.22
2019-03-18T02:21:14.365Z,85.25
2019-03-18T02:23:42.678Z,85.24
2019-03-18T02:26:10.962Z,85.17
2019-03-18T02:28:39.354Z,85.34
2019-03-18T02:31:07.643Z,85.11
2019-03-18T02:33:36.370Z,85.01
2019-03-18T02:36:04.958Z,84.28
2019-03-18T02:38:33.254Z,84.97
2019-03-18T02:41:01.664Z,85.14
2019-03-18T02:43:30.404Z,85.12
2019-03-18T02:46:09.999Z,85.00
2019-03-18T02:48:28.736Z,84.95
2019-03-18T02:50:58.534Z,85.10
2019-03-18T02:53:26.810Z,84.74
2019-03-18T02:55:55.107Z,85.11
2019-03-18T02:58:23.650Z,85.57
2019-03-18T03:00:51.975Z,85.97
2019-03-18T03:03:20.265Z,86.42
2019-03-18T03:05:48.601Z,86.54
2019-03-18T03:08:16.891Z,87.27
2019-03-18T03:10:45.528Z,87.67
2019-03-18T03:13:13.825Z,87.71
2019-03-18T03:15:42.111Z,87.98
2019-03-18T03:18:10.696Z,88.89
2019-03-18T03:20:39.001Z,88.90
2019-03-18T03:23:07.317Z,89.83
2019-03-18T03:25:35.617Z,89.79
2019-03-18T03:28:03.938Z,90.37
2019-03-18T03:30:32.241Z,90.68
2019-03-18T03:33:00.551Z,90.80
2019-03-18T03:35:28.958Z,90.70
2019-03-18T03:37:57.220Z,91.10
2019-03-18T03:40:25.514Z,91.31
2019-03-18T03:42:54.181Z,91.39
2019-03-18T03:45:22.463Z,91.48
2019-03-18T03:47:50.795Z,91.70
2019-03-18T03:50:19.111Z,91.75
2019-03-18T03:52:47.777Z,91.38
2019-03-18T03:55:16.074Z,91.66
2019-03-18T03:57:45.065Z,91.80
2019-03-18T04:00:16.716Z,91.78
2019-03-18T04:02:45.178Z,91.88
2019-03-18T04:05:13.457Z,92.09
2019-03-18T04:07:41.914Z,92.15
2019-03-18T04:10:12.858Z,92.23
2019-03-18T04:12:41.466Z,91.95
2019-03-18T04:15:11.396Z,91.79
2019-03-18T04:17:39.729Z,92.28
2019-03-18T04:20:13.726Z,92.49
2019-03-18T04:22:42.048Z,92.45
2019-03-18T04:25:10.415Z,92.53
2019-03-18T04:27:38.731Z,92.59
2019-03-18T04:30:12.158Z,92.69
2019-03-18T04:32:40.426Z,92.89
2019-03-18T04:35:08.926Z,92.92
2019-03-18T04:37:37.241Z,92.66
2019-03-18T04:40:07.782Z,92.59
2019-03-18T04:42:36.095Z,92.57
2019-03-18T04:45:06.239Z,92.56
2019-03-18T04:47:34.651Z,92.78
2019-03-18T04:50:03.237Z,92.69
2019-03-18T04:52:31.555Z,92.84
2019-03-18T04:54:59.951Z,92.79
2019-03-18T04:57:28.242Z,92.78
2019-03-18T04:59:56.561Z,92.67
2019-03-18T05:02:24.912Z,92.51
2019-03-18T05:04:53.251Z,92.28
2019-03-18T05:07:21.546Z,92.42
2019-03-18T05:09:50.135Z,92.49
2019-03-18T05:12:18.425Z,92.55
2019-03-18T05:14:46.760Z,92.33
2019-03-18T05:17:26.093Z,92.63
2019-03-18T05:19:45.072Z,92.70
2019-03-18T05:22:13.764Z,92.86
2019-03-18T05:24:42.074Z,92.88
2019-03-18T05:27:10.385Z,92.68
2019-03-18T05:29:38.678Z,92.56
2019-03-18T05:32:06.991Z,92.55
2019-03-18T05:34:35.286Z,92.86
2019-03-18T05:37:03.680Z,92.97
2019-03-18T05:39:32.220Z,92.97
2019-03-18T05:42:00.646Z,92.96
2019-03-18T05:44:28.966Z,92.99
2019-03-18T05:46:57.282Z,92.92
2019-03-18T05:49:25.572Z,92.79
2019-03-18T05:51:53.878Z,92.75
2019-03-18T05:54:22.478Z,92.55
2019-03-18T05:56:50.800Z,92.92
2019-03-18T05:59:19.437Z,93.03
2019-03-18T06:01:47.737Z,93.10
2019-03-18T06:04:16.491Z,93.02
2019-03-18T06:06:44.785Z,92.00
2019-03-18T06:09:13.097Z,92.37
2019-03-18T06:11:41.373Z,92.48
2019-03-18T06:14:09.696Z,92.77
2019-03-18T06:16:37.987Z,93.02
2019-03-18T06:19:06.293Z,93.10
2019-03-18T06:21:34.585Z,93.31
2019-03-18T06:24:02.910Z,93.16
2019-03-18T06:26:31.513Z,93.18
2019-03-18T06:28:59.855Z,92.84
2019-03-18T06:31:28.138Z,93.06
2019-03-18T06:33:56.473Z,93.59
2019-03-18T06:36:24.772Z,93.83
2019-03-18T06:38:53.086Z,93.96
2019-03-18T06:41:21.457Z,93.99
2019-03-18T06:43:49.746Z,94.24
2019-03-18T06:46:18.068Z,94.42
2019-03-18T06:48:46.395Z,94.08
2019-03-18T06:51:14.726Z,93.95
2019-03-18T06:53:43.270Z,93.50
2019-03-18T06:56:11.579Z,93.55
2019-03-18T06:58:39.869Z,93.30
2019-03-18T07:01:08.202Z,92.89
2019-03-18T07:03:36.774Z,92.53
2019-03-18T07:06:05.081Z,92.92
2019-03-18T07:08:33.389Z,93.38
2019-03-18T07:11:01.706Z,92.91
2019-03-18T07:13:30.010Z,91.75
2019-03-18T07:16:00.104Z,92.00
2019-03-18T07:18:28.563Z,92.31
2019-03-18T07:20:58.563Z,92.04
2019-03-18T07:23:26.857Z,91.85
2019-03-18T07:25:55.162Z,92.06
2019-03-18T07:28:23.480Z,91.58
2019-03-18T07:30:51.772Z,91.56
2019-03-18T07:33:20.391Z,91.94
2019-03-18T07:35:48.687Z,91.62
2019-03-18T07:38:17.023Z,90.97
2019-03-18T07:40:45.306Z,90.20
2019-03-18T07:43:14.828Z,90.01
2019-03-18T07:45:43.131Z,87.45
2019-03-18T07:48:12.669Z,89.21
2019-03-18T07:50:41.039Z,88.75
2019-03-18T07:53:09.349Z,89.24
2019-03-18T07:55:37.659Z,87.92
2019-03-18T07:58:05.970Z,87.57
2019-03-18T08:00:34.277Z,88.45
2019-03-18T08:03:03.585Z,88.21
2019-03-18T08:05:31.970Z,87.98
2019-03-18T08:08:00.290Z,86.39
2019-03-18T08:10:28.623Z,86.82
2019-03-18T08:12:56.926Z,86.90
2019-03-18T08:15:25.233Z,86.42
2019-03-18T08:17:53.596Z,86.41
2019-03-18T08:20:21.907Z,85.47
2019-03-18T08:22:50.235Z,85.24
2019-03-18T08:25:18.520Z,85.29
2019-03-18T08:27:47.118Z,85.12
2019-03-18T08:30:17.119Z,84.72
2019-03-18T08:32:45.777Z,84.24
2019-03-18T08:35:14.090Z,83.37
2019-03-18T08:37:42.412Z,84.34
2019-03-18T08:40:13.494Z,84.89
2019-03-18T08:42:41.794Z,83.79
2019-03-18T08:45:11.870Z,84.25
2019-03-18T08:47:40.169Z,84.42
2019-03-18T08:50:12.281Z,83.87
2019-03-18T08:52:40.293Z,82.98
2019-03-18T08:55:09.972Z,82.96
2019-03-18T08:57:38.280Z,82.77
2019-03-18T09:00:12.385Z,81.97
2019-03-18T09:02:40.689Z,80.28
2019-03-18T09:05:09.651Z,80.64
2019-03-18T09:07:38.093Z,80.86
2019-03-18T09:10:09.918Z,80.52
2019-03-18T09:12:38.196Z,80.25
2019-03-18T09:15:08.553Z,78.52
2019-03-18T09:17:36.854Z,78.39
2019-03-18T09:20:08.624Z,77.97
2019-03-18T09:22:36.927Z,75.85
2019-03-18T09:25:07.176Z,75.45
2019-03-18T09:27:35.808Z,75.96
2019-03-18T09:30:06.748Z,75.66
2019-03-18T09:32:35.348Z,75.40
2019-03-18T09:35:04.462Z,74.28
2019-03-18T09:37:33.113Z,71.66
2019-03-18T09:40:01.421Z,72.62
2019-03-18T09:42:29.704Z,72.48
2019-03-18T09:44:58.035Z,70.12
2019-03-18T09:47:26.348Z,68.93
2019-03-18T09:49:54.695Z,68.87
2019-03-18T09:52:23.060Z,69.26
2019-03-18T09:54:51.661Z,69.61
2019-03-18T09:57:25.787Z,69.45
2019-03-18T09:59:50.061Z,66.45
2019-03-18T10:02:18.454Z,67.88
2019-03-18T10:04:46.753Z,67.76
2019-03-18T10:07:15.072Z,66.34
2019-03-18T10:09:43.447Z,65.40
2019-03-18T10:12:11.840Z,65.08
2019-03-18T10:14:40.138Z,66.53
2019-03-18T10:17:10.003Z,65.71
2019-03-18T10:19:38.559Z,65.42
2019-03-18T10:22:06.895Z,65.67
2019-03-18T10:24:35.242Z,65.20
2019-03-18T10:27:03.835Z,64.71
2019-03-18T10:29:32.231Z,64.23
2019-03-18T10:32:00.527Z,63.21
2019-03-18T10:34:28.844Z,64.59
2019-03-18T10:36:57.125Z,64.97
2019-03-18T10:39:25.762Z,63.60
2019-03-18T10:41:54.062Z,62.50
2019-03-18T10:44:22.453Z,62.09
2019-03-18T10:46:50.852Z,62.48
2019-03-18T10:49:19.149Z,62.24
2019-03-18T10:51:48.397Z,60.77
2019-03-18T10:54:16.818Z,60.29
2019-03-18T10:56:45.157Z,61.22
2019-03-18T10:59:13.466Z,61.78
2019-03-18T11:01:41.791Z,61.75
2019-03-18T11:04:10.078Z,62.35
2019-03-18T11:06:38.397Z,62.87
2019-03-18T11:09:06.948Z,61.62
2019-03-18T11:11:35.282Z,62.63
2019-03-18T11:14:03.575Z,62.47
2019-03-18T11:16:32.268Z,62.32
2019-03-18T11:19:00.863Z,62.80
2019-03-18T11:21:29.268Z,63.61
2019-03-18T11:23:57.902Z,63.25
2019-03-18T11:26:26.217Z,62.61
2019-03-18T11:28:54.583Z,62.36
2019-03-18T11:31:22.912Z,62.67
2019-03-18T11:33:51.198Z,62.73
2019-03-18T11:36:19.641Z,62.65
2019-03-18T11:38:47.954Z,60.84
2019-03-18T11:41:17.531Z,60.27
2019-03-18T11:43:46.283Z,59.67
2019-03-18T11:46:14.585Z,58.71
2019-03-18T11:48:42.889Z,58.67
2019-03-18T11:51:11.202Z,57.13
2019-03-18T11:53:39.769Z,56.05
2019-03-18T11:56:08.076Z,55.70
2019-03-18T11:58:36.381Z,54.50
2019-03-18T12:01:05.035Z,54.51
2019-03-18T12:03:33.343Z,55.12
2019-03-18T12:06:01.710Z,54.76
2019-03-18T12:08:30.035Z,56.06
2019-03-18T12:11:01.115Z,56.79
2019-03-18T12:13:29.418Z,56.08
2019-03-18T12:15:57.723Z,56.68
2019-03-18T12:18:26.289Z,57.91
2019-03-18T12:20:54.595Z,58.37
2019-03-18T12:23:22.909Z,59.57
2019-03-18T12:25:51.225Z,60.13
2019-03-18T12:28:19.540Z,60.96
2019-03-18T12:30:48.125Z,61.81
2019-03-18T12:33:16.464Z,62.32
2019-03-18T12:35:44.742Z,62.91
2019-03-18T12:38:13.055Z,62.81
2019-03-18T12:40:41.340Z,62.97
2019-03-18T12:43:09.655Z,62.93
2019-03-18T12:45:37.952Z,63.02
2019-03-18T12:48:06.258Z,62.35
2019-03-18T12:50:54.450Z,62.49
2019-03-18T12:53:05.050Z,62.00
2019-03-18T12:55:33.348Z,61.49
2019-03-18T12:58:01.633Z,60.98
2019-03-18T13:00:35.003Z,59.89
2019-03-18T13:03:03.369Z,58.01
2019-03-18T13:05:32.085Z,56.56
2019-03-18T13:08:00.396Z,55.30
2019-03-18T13:10:29.054Z,54.13
2019-03-18T13:12:57.457Z,53.86
2019-03-18T13:15:25.859Z,53.02
2019-03-18T13:17:54.168Z,53.81
2019-03-18T13:20:23.437Z,54.39
2019-03-18T13:22:54.002Z,53.15
2019-03-18T13:25:21.753Z,53.17
2019-03-18T13:27:50.073Z,53.35
2019-03-18T13:30:25.358Z,53.35
2019-03-18T13:32:53.928Z,53.69
2019-03-18T13:35:22.563Z,53.60
2019-03-18T13:37:50.878Z,53.75
2019-03-18T13:40:19.955Z,54.07
2019-03-18T13:42:48.470Z,55.36
2019-03-18T13:45:23.874Z,58.27
2019-03-18T13:47:52.177Z,60.91
2019-03-18T13:50:21.342Z,61.17
2019-03-18T13:52:49.907Z,62.12
2019-03-18T13:55:18.450Z,62.19
2019-03-18T13:57:47.096Z,62.49
2019-03-18T14:00:16.818Z,62.38
2019-03-18T14:02:45.119Z,61.43
2019-03-18T14:05:13.905Z,61.18
2019-03-18T14:07:42.531Z,60.66
2019-03-18T14:10:18.394Z,61.22
2019-03-18T14:12:46.958Z,60.94
2019-03-18T14:15:16.681Z,60.68
2019-03-18T14:17:44.988Z,60.12
2019-03-18T14:20:18.466Z,59.67
2019-03-18T14:22:46.999Z,59.27
2019-03-18T14:25:15.379Z,58.53
2019-03-18T14:27:44.002Z,59.01
2019-03-18T14:30:16.713Z,58.86
2019-03-18T14:32:45.277Z,56.72
2019-03-18T14:35:14.227Z,54.77
2019-03-18T14:37:42.816Z,52.91
2019-03-18T14:40:13.108Z,52.49
2019-03-18T14:42:41.395Z,51.79
2019-03-18T14:45:12.765Z,51.85
2019-03-18T14:47:41.076Z,51.58
2019-03-18T14:50:11.335Z,52.24
2019-03-18T14:52:39.645Z,53.19
2019-03-18T14:55:10.614Z,55.33
2019-03-18T14:57:38.892Z,56.15
2019-03-18T15:00:24.932Z,56.80
2019-03-18T15:02:59.491Z,58.92
2019-03-18T15:05:27.816Z,61.36
2019-03-18T15:07:56.188Z,63.45
2019-03-18T15:10:28.109Z,66.32
2019-03-18T15:12:56.398Z,67.85
2019-03-18T15:15:24.694Z,69.83
2019-03-18T15:17:52.988Z,71.99
2019-03-18T15:20:23.479Z,73.38
2019-03-18T15:22:51.818Z,74.50
2019-03-18T15:25:28.758Z,75.42
2019-03-18T15:27:57.421Z,75.94
2019-03-18T15:30:25.704Z,75.47
2019-03-18T15:32:54.018Z,75.57
2019-03-18T15:35:22.389Z,75.62
2019-03-18T15:37:50.702Z,75.15
2019-03-18T15:40:20.435Z,75.08
2019-03-18T15:42:49.126Z,74.31
2019-03-18T15:45:18.355Z,73.84
2019-03-18T15:47:46.687Z,73.80
2019-03-18T15:50:20.005Z,74.02
2019-03-18T15:52:48.521Z,73.82
2019-03-18T15:55:16.857Z,73.56
2019-03-18T15:57:45.443Z,73.31
2019-03-18T16:00:28.995Z,73.31
2019-03-18T16:02:57.291Z,72.97
2019-03-18T16:05:25.848Z,72.96
2019-03-18T16:07:54.399Z,72.80
2019-03-18T16:10:22.713Z,72.62
2019-03-18T16:12:51.012Z,72.81
2019-03-18T16:15:19.468Z,72.13
2019-03-18T16:17:47.835Z,72.10
2019-03-18T16:20:23.586Z,71.62
2019-03-18T16:22:51.988Z,71.53
2019-03-18T16:25:20.376Z,70.78
2019-03-18T16:27:48.667Z,69.44
2019-03-18T16:30:20.700Z,69.54
2019-03-18T16:32:48.984Z,69.39
2019-03-18T16:35:17.724Z,68.28
2019-03-18T16:37:46.502Z,67.63
2019-03-18T16:40:17.365Z,68.02
2019-03-18T16:42:45.672Z,68.47
2019-03-18T16:45:17.776Z,68.62
2019-03-18T16:47:46.080Z,68.86
2019-03-18T16:50:27.933Z,68.55
2019-03-18T16:52:56.219Z,68.54
2019-03-18T16:55:24.530Z,69.08
2019-03-18T16:57:52.830Z,69.06
2019-03-18T17:00:27.964Z,68.88
2019-03-18T17:02:56.290Z,69.16
2019-03-18T17:05:24.575Z,69.49
2019-03-18T17:07:54.425Z,69.48
2019-03-18T17:10:22.977Z,69.39
2019-03-18T17:12:51.576Z,69.46
2019-03-18T17:15:20.904Z,69.69
2019-03-18T17:17:49.213Z,69.70
2019-03-18T17:20:17.789Z,69.43
2019-03-18T17:22:50.366Z,69.39
2019-03-18T17:25:21.493Z,69.05
2019-03-18T17:27:50.164Z,69.20
2019-03-18T17:30:19.516Z,69.40
2019-03-18T17:32:48.087Z,69.72
2019-03-18T17:35:16.456Z,70.17
2019-03-18T17:37:44.821Z,70.42
2019-03-18T17:40:18.421Z,70.20
2019-03-18T17:42:46.719Z,70.31
2019-03-18T17:45:18.885Z,70.81
2019-03-18T17:47:47.198Z,70.78
2019-03-18T17:50:23.912Z,70.89
2019-03-18T17:53:02.464Z,70.83
2019-03-18T17:55:22.256Z,70.65
2019-03-18T17:57:50.542Z,70.31
2019-03-18T18:00:20.998Z,69.84
2019-03-18T18:02:49.298Z,69.83
2019-03-18T18:05:17.608Z,69.42
2019-03-18T18:07:46.169Z,68.63
2019-03-18T18:10:14.816Z,67.98
2019-03-18T18:12:43.104Z,67.86
2019-03-18T18:15:11.987Z,67.75
2019-03-18T18:17:40.554Z,67.77
2019-03-18T18:20:10.789Z,67.77
2019-03-18T18:22:41.023Z,67.27
2019-03-18T18:25:13.344Z,67.84
2019-03-18T18:27:41.962Z,67.98
2019-03-18T18:30:12.340Z,67.82
2019-03-18T18:32:40.640Z,68.04
2019-03-18T18:35:12.800Z,68.44
2019-03-18T18:37:41.262Z,68.14
2019-03-18T18:40:18.688Z,68.12
2019-03-18T18:42:46.988Z,68.47
2019-03-18T18:45:15.273Z,68.65
2019-03-18T18:47:43.558Z,69.04
2019-03-18T18:50:12.611Z,69.32
2019-03-18T18:52:40.930Z,69.46
2019-03-18T18:55:11.468Z,69.89
2019-03-18T18:57:39.748Z,70.23
2019-03-18T19:00:17.153Z,70.76
2019-03-18T19:02:45.445Z,70.78
2019-03-18T19:05:15.013Z,70.99
2019-03-18T19:07:43.883Z,71.69
2019-03-18T19:10:16.385Z,71.89
2019-03-18T19:12:44.679Z,72.33
2019-03-18T19:15:38.760Z,72.63
2019-03-18T19:18:07.396Z,72.87
2019-03-18T19:20:35.716Z,73.29
2019-03-18T19:23:04.048Z,73.59
2019-03-18T19:25:32.660Z,73.72
2019-03-18T19:28:01.080Z,74.03
2019-03-18T19:30:29.727Z,74.54
2019-03-18T19:32:58.052Z,74.97
2019-03-18T19:35:28.626Z,75.02
2019-03-18T19:37:56.385Z,75.34
2019-03-18T19:40:25.234Z,75.32
2019-03-18T19:42:53.544Z,75.50
2019-03-18T19:45:21.948Z,75.40
2019-03-18T19:47:53.035Z,75.36
2019-03-18T19:50:21.448Z,75.17
2019-03-18T19:52:49.799Z,75.26
2019-03-18T19:55:18.138Z,75.44
2019-03-18T19:57:46.428Z,75.62
2019-03-18T20:00:30.786Z,75.49
2019-03-18T20:02:59.094Z,75.75
2019-03-18T20:05:27.407Z,75.91
2019-03-18T20:07:55.709Z,75.96
2019-03-18T20:10:24.045Z,76.12
2019-03-18T20:12:52.341Z,76.16
2019-03-18T20:15:20.847Z,76.35
2019-03-18T20:17:49.297Z,76.55
2019-03-18T20:20:24.312Z,76.65
2019-03-18T20:22:52.633Z,76.89
2019-03-18T20:25:20.933Z,77.10
2019-03-18T20:27:49.572Z,77.34
2019-03-18T20:30:19.897Z,77.52
2019-03-18T20:32:48.293Z,77.49
2019-03-18T20:35:26.374Z,77.55
2019-03-18T20:37:54.698Z,77.60
2019-03-18T20:40:23.067Z,77.70
2019-03-18T20:42:51.472Z,77.76
2019-03-18T20:45:24.719Z,77.63
2019-03-18T20:47:53.062Z,77.71
2019-03-18T20:50:22.599Z,77.69
2019-03-18T20:52:50.910Z,77.94
2019-03-18T20:55:19.448Z,77.80
2019-03-18T20:57:47.797Z,77.65
2019-03-18T21:00:17.870Z,77.71
2019-03-18T21:02:46.219Z,77.84
2019-03-18T21:05:14.683Z,77.84
2019-03-18T21:07:43.000Z,77.91
2019-03-18T21:10:13.241Z,78.17
2019-03-18T21:12:41.672Z,78.30
2019-03-18T21:15:12.004Z,78.64
2019-03-18T21:17:40.301Z,78.73
2019-03-18T21:20:17.737Z,79.00
2019-03-18T21:22:46.104Z,79.04
2019-03-18T21:25:14.547Z,79.18
2019-03-18T21:27:42.841Z,79.12
2019-03-18T21:30:17.209Z,79.40
2019-03-18T21:32:45.488Z,79.60
2019-03-18T21:35:13.872Z,79.67
2019-03-18T21:37:42.441Z,79.93
2019-03-18T21:40:18.721Z,80.13
2019-03-18T21:42:47.131Z,80.30
2019-03-18T21:45:19.581Z,80.49
2019-03-18T21:47:48.246Z,80.59
2019-03-18T21:50:17.055Z,80.66
2019-03-18T21:52:45.735Z,80.61
2019-03-18T21:55:14.855Z,80.72
2019-03-18T21:57:43.313Z,80.92
2019-03-18T22:00:24.127Z,80.95
2019-03-18T22:02:52.515Z,81.12
2019-03-18T22:05:20.810Z,81.32
2019-03-18T22:07:49.122Z,81.36
2019-03-18T22:10:23.252Z,81.40
2019-03-18T22:12:51.893Z,81.40
2019-03-18T22:15:20.265Z,81.54
2019-03-18T22:17:48.569Z,81.71
2019-03-18T22:20:17.832Z,81.72
2019-03-18T22:22:46.198Z,81.86
2019-03-18T22:25:15.363Z,82.04
2019-03-18T22:27:43.639Z,82.06
2019-03-18T22:30:15.114Z,82.13
2019-03-18T22:32:43.690Z,82.26
2019-03-18T22:35:12.795Z,82.12
2019-03-18T22:37:41.115Z,82.26
2019-03-18T22:40:12.529Z,82.51
2019-03-18T22:42:40.824Z,82.56
2019-03-18T22:45:11.835Z,82.64
2019-03-18T22:47:40.322Z,82.69
2019-03-18T22:50:12.660Z,82.53
2019-03-18T22:52:41.215Z,82.62
2019-03-18T22:55:11.381Z,82.70
2019-03-18T22:57:39.729Z,82.91
2019-03-18T23:00:25.932Z,83.00
2019-03-18T23:02:54.321Z,83.10
2019-03-18T23:05:22.612Z,83.16
2019-03-18T23:07:50.924Z,83.19
2019-03-18T23:10:19.227Z,83.24
2019-03-18T23:12:47.643Z,83.29
2019-03-18T23:15:15.998Z,83.33
2019-03-18T23:17:44.317Z,83.42
2019-03-18T23:20:13.036Z,83.45
2019-03-18T23:22:41.340Z,83.58
2019-03-18T23:25:09.820Z,83.52
2019-03-18T23:27:38.155Z,83.63
2019-03-18T23:30:13.933Z,83.92
2019-03-18T23:32:42.687Z,83.77
2019-03-18T23:35:11.760Z,83.81
2019-03-18T23:37:40.076Z,83.75
2019-03-18T23:40:11.002Z,83.66
2019-03-18T23:42:39.313Z,83.74
2019-03-18T23:45:08.778Z,84.05
2019-03-18T23:47:37.381Z,84.08
2019-03-18T23:50:08.546Z,84.10
2019-03-18T23:52:36.862Z,84.12
2019-03-18T23:55:18.286Z,84.12
2019-03-18T23:57:37.915Z,84.16
